sensor_id;sensor_type;location;lat;lon;timestamp;temperature;humidity
9209;DHT22;4639;48.862;9.188;2022-10-31T00:00:23;13.80;99.90
9209;DHT22;4639;48.862;9.188;2022-10-31T00:02:48;13.90;99.90
9209;DHT22;4639;48.862;9.188;2022-10-31T00:05:14;14.00;99.90
9209;DHT22;4639;48.862;9.188;2022-10-31T00:07:40;13.70;99.90
9209;DHT22;4639;48.862;9.188;2022-10-31T00:10:06;13.60;99.90
9209;DHT22;4639;48.862;9.188;2022-10-31T00:12:31;13.70;99.90
9209;DHT22;4639;48.862;9.188;2022-10-31T00:14:57;13.60;99.90
9209;DHT22;4639;48.862;9.188;2022-10-31T00:17:22;13.60;99.90
9209;DHT22;4639;48.862;9.188;2022-10-31T00:19:48;13.60;99.90
9209;DHT22;4639;48.862;9.188;2022-10-31T00:22:14;13.50;99.90
9209;DHT22;4639;48.862;9.188;2022-10-31T00:24:39;13.50;99.90
9209;DHT22;4639;48.862;9.188;2022-10-31T00:27:05;13.40;99.90
9209;DHT22;4639;48.862;9.188;2022-10-31T00:29:30;13.50;99.90
9209;DHT22;4639;48.862;9.188;2022-10-31T00:31:56;13.40;99.90
9209;DHT22;4639;48.862;9.188;2022-10-31T00:34:21;13.50;99.90
9209;DHT22;4639;48.862;9.188;2022-10-31T00:36:47;13.40;99.90
9209;DHT22;4639;48.862;9.188;2022-10-31T00:39:12;13.40;99.90
9209;DHT22;4639;48.862;9.188;2022-10-31T00:41:38;13.40;99.90
9209;DHT22;4639;48.862;9.188;2022-10-31T00:44:04;13.40;99.90
9209;DHT22;4639;48.862;9.188;2022-10-31T00:46:29;13.40;99.90
9209;DHT22;4639;48.862;9.188;2022-10-31T00:48:55;13.30;99.90
9209;DHT22;4639;48.862;9.188;2022-10-31T00:51:20;13.30;99.90
9209;DHT22;4639;48.862;9.188;2022-10-31T00:53:46;13.30;99.90
9209;DHT22;4639;48.862;9.188;2022-10-31T00:56:12;13.30;99.90
9209;DHT22;4639;48.862;9.188;2022-10-31T00:58:37;13.20;99.90
9209;DHT22;4639;48.862;9.188;2022-10-31T01:01:04;13.20;99.90
9209;DHT22;4639;48.862;9.188;2022-10-31T01:03:32;13.20;99.90
9209;DHT22;4639;48.862;9.188;2022-10-31T01:06:02;13.20;99.90
9209;DHT22;4639;48.862;9.188;2022-10-31T01:08:28;13.10;99.90
9209;DHT22;4639;48.862;9.188;2022-10-31T01:11:11;13.10;99.90
9209;DHT22;4639;48.862;9.188;2022-10-31T01:13:37;13.00;99.90
9209;DHT22;4639;48.862;9.188;2022-10-31T01:16:04;13.10;99.90
9209;DHT22;4639;48.862;9.188;2022-10-31T01:18:31;13.00;99.90
9209;DHT22;4639;48.862;9.188;2022-10-31T01:21:02;13.00;99.90
9209;DHT22;4639;48.862;9.188;2022-10-31T01:23:28;13.00;99.90
9209;DHT22;4639;48.862;9.188;2022-10-31T01:26:05;13.00;99.90
9209;DHT22;4639;48.862;9.188;2022-10-31T01:28:32;13.00;99.90
9209;DHT22;4639;48.862;9.188;2022-10-31T01:31:08;13.00;99.90
9209;DHT22;4639;48.862;9.188;2022-10-31T01:33:35;12.90;99.90
9209;DHT22;4639;48.862;9.188;2022-10-31T01:36:01;12.80;99.90
9209;DHT22;4639;48.862;9.188;2022-10-31T01:38:35;12.80;99.90
9209;DHT22;4639;48.862;9.188;2022-10-31T01:41:01;12.80;99.90
9209;DHT22;4639;48.862;9.188;2022-10-31T01:43:49;12.80;99.90
9209;DHT22;4639;48.862;9.188;2022-10-31T01:46:19;12.80;99.90
9209;DHT22;4639;48.862;9.188;2022-10-31T01:48:46;12.80;99.90
9209;DHT22;4639;48.862;9.188;2022-10-31T01:51:13;12.80;99.90
9209;DHT22;4639;48.862;9.188;2022-10-31T01:53:40;12.80;99.90
9209;DHT22;4639;48.862;9.188;2022-10-31T01:56:07;12.70;99.90
9209;DHT22;4639;48.862;9.188;2022-10-31T01:58:33;12.70;99.90
9209;DHT22;4639;48.862;9.188;2022-10-31T02:01:02;12.60;99.90
9209;DHT22;4639;48.862;9.188;2022-10-31T02:03:29;12.60;99.90
9209;DHT22;4639;48.862;9.188;2022-10-31T02:05:56;12.60;99.90
9209;DHT22;4639;48.862;9.188;2022-10-31T02:08:29;12.60;99.90
9209;DHT22;4639;48.862;9.188;2022-10-31T02:10:57;12.60;99.90
9209;DHT22;4639;48.862;9.188;2022-10-31T02:13:23;12.70;99.90
9209;DHT22;4639;48.862;9.188;2022-10-31T02:15:53;12.60;99.90
9209;DHT22;4639;48.862;9.188;2022-10-31T02:18:19;12.60;99.90
9209;DHT22;4639;48.862;9.188;2022-10-31T02:26:45;12.60;99.90
9209;DHT22;4639;48.862;9.188;2022-10-31T02:32:28;12.60;99.90
9209;DHT22;4639;48.862;9.188;2022-10-31T02:35:20;12.60;99.90
9209;DHT22;4639;48.862;9.188;2022-10-31T02:40:46;12.50;99.90
9209;DHT22;4639;48.862;9.188;2022-10-31T02:43:36;12.60;99.90
9209;DHT22;4639;48.862;9.188;2022-10-31T02:46:24;12.60;99.90
9209;DHT22;4639;48.862;9.188;2022-10-31T02:48:56;12.60;99.90
9209;DHT22;4639;48.862;9.188;2022-10-31T02:51:22;12.60;99.90
9209;DHT22;4639;48.862;9.188;2022-10-31T02:53:48;12.60;99.90
9209;DHT22;4639;48.862;9.188;2022-10-31T02:56:19;12.60;99.90
9209;DHT22;4639;48.862;9.188;2022-10-31T02:58:53;12.60;99.90
9209;DHT22;4639;48.862;9.188;2022-10-31T03:01:39;12.60;99.90
9209;DHT22;4639;48.862;9.188;2022-10-31T03:09:33;12.70;99.90
9209;DHT22;4639;48.862;9.188;2022-10-31T03:17:05;12.70;99.90
9209;DHT22;4639;48.862;9.188;2022-10-31T03:19:45;12.70;99.90
9209;DHT22;4639;48.862;9.188;2022-10-31T03:22:17;12.70;99.90
9209;DHT22;4639;48.862;9.188;2022-10-31T03:24:45;12.70;99.90
9209;DHT22;4639;48.862;9.188;2022-10-31T03:27:14;12.60;99.90
9209;DHT22;4639;48.862;9.188;2022-10-31T03:29:42;12.70;99.90
9209;DHT22;4639;48.862;9.188;2022-10-31T03:32:21;12.60;99.90
9209;DHT22;4639;48.862;9.188;2022-10-31T03:34:48;12.80;99.90
9209;DHT22;4639;48.862;9.188;2022-10-31T03:37:17;12.60;99.90
9209;DHT22;4639;48.862;9.188;2022-10-31T03:39:44;12.60;99.90
9209;DHT22;4639;48.862;9.188;2022-10-31T03:42:16;12.50;99.90
9209;DHT22;4639;48.862;9.188;2022-10-31T03:44:46;12.50;99.90
9209;DHT22;4639;48.862;9.188;2022-10-31T03:47:15;12.40;99.90
9209;DHT22;4639;48.862;9.188;2022-10-31T03:49:40;12.30;99.90
9209;DHT22;4639;48.862;9.188;2022-10-31T03:52:26;12.30;99.90
9209;DHT22;4639;48.862;9.188;2022-10-31T03:55:18;12.30;99.90
9209;DHT22;4639;48.862;9.188;2022-10-31T03:58:04;12.30;99.90
9209;DHT22;4639;48.862;9.188;2022-10-31T04:00:34;12.30;99.90
9209;DHT22;4639;48.862;9.188;2022-10-31T04:03:07;12.30;99.90
9209;DHT22;4639;48.862;9.188;2022-10-31T04:05:35;12.20;99.90
9209;DHT22;4639;48.862;9.188;2022-10-31T04:08:05;12.20;99.90
9209;DHT22;4639;48.862;9.188;2022-10-31T04:10:34;12.10;99.90
9209;DHT22;4639;48.862;9.188;2022-10-31T04:13:09;12.20;99.90
9209;DHT22;4639;48.862;9.188;2022-10-31T04:15:37;12.10;99.90
9209;DHT22;4639;48.862;9.188;2022-10-31T04:18:04;12.10;99.90
9209;DHT22;4639;48.862;9.188;2022-10-31T04:20:38;12.10;99.90
9209;DHT22;4639;48.862;9.188;2022-10-31T04:23:05;12.10;99.90
9209;DHT22;4639;48.862;9.188;2022-10-31T04:25:36;12.10;99.90
9209;DHT22;4639;48.862;9.188;2022-10-31T04:28:01;12.10;99.90
9209;DHT22;4639;48.862;9.188;2022-10-31T04:30:27;12.00;99.90
9209;DHT22;4639;48.862;9.188;2022-10-31T04:32:52;12.00;99.90
9209;DHT22;4639;48.862;9.188;2022-10-31T04:35:18;12.00;99.90
9209;DHT22;4639;48.862;9.188;2022-10-31T04:37:43;11.90;99.90
9209;DHT22;4639;48.862;9.188;2022-10-31T04:40:10;11.90;99.90
9209;DHT22;4639;48.862;9.188;2022-10-31T04:42:36;11.90;99.90
9209;DHT22;4639;48.862;9.188;2022-10-31T04:45:01;11.80;99.90
9209;DHT22;4639;48.862;9.188;2022-10-31T04:47:27;11.80;99.90
9209;DHT22;4639;48.862;9.188;2022-10-31T04:49:55;11.80;99.90
9209;DHT22;4639;48.862;9.188;2022-10-31T04:52:21;11.70;99.90
9209;DHT22;4639;48.862;9.188;2022-10-31T04:54:46;11.70;99.90
9209;DHT22;4639;48.862;9.188;2022-10-31T04:57:12;11.70;99.90
9209;DHT22;4639;48.862;9.188;2022-10-31T04:59:37;11.60;99.90
9209;DHT22;4639;48.862;9.188;2022-10-31T05:02:03;11.70;99.90
9209;DHT22;4639;48.862;9.188;2022-10-31T05:04:28;11.70;99.90
9209;DHT22;4639;48.862;9.188;2022-10-31T05:06:54;11.70;99.90
9209;DHT22;4639;48.862;9.188;2022-10-31T05:09:19;11.70;99.90
9209;DHT22;4639;48.862;9.188;2022-10-31T05:11:45;11.70;99.90
9209;DHT22;4639;48.862;9.188;2022-10-31T05:14:10;11.70;99.90
9209;DHT22;4639;48.862;9.188;2022-10-31T05:16:36;11.60;99.90
9209;DHT22;4639;48.862;9.188;2022-10-31T05:19:01;11.60;99.90
9209;DHT22;4639;48.862;9.188;2022-10-31T05:21:27;11.60;99.90
9209;DHT22;4639;48.862;9.188;2022-10-31T05:23:52;11.60;99.90
9209;DHT22;4639;48.862;9.188;2022-10-31T05:26:18;11.60;99.90
9209;DHT22;4639;48.862;9.188;2022-10-31T05:28:44;11.50;99.90
9209;DHT22;4639;48.862;9.188;2022-10-31T05:31:09;11.50;99.90
9209;DHT22;4639;48.862;9.188;2022-10-31T05:33:35;11.60;99.90
9209;DHT22;4639;48.862;9.188;2022-10-31T05:36:00;11.60;99.90
9209;DHT22;4639;48.862;9.188;2022-10-31T05:38:26;11.60;99.90
9209;DHT22;4639;48.862;9.188;2022-10-31T05:40:57;11.60;99.90
9209;DHT22;4639;48.862;9.188;2022-10-31T05:43:27;11.60;99.90
9209;DHT22;4639;48.862;9.188;2022-10-31T05:45:53;11.60;99.90
9209;DHT22;4639;48.862;9.188;2022-10-31T05:48:19;11.60;99.90
9209;DHT22;4639;48.862;9.188;2022-10-31T05:50:44;11.50;99.90
9209;DHT22;4639;48.862;9.188;2022-10-31T05:53:10;11.50;99.90
9209;DHT22;4639;48.862;9.188;2022-10-31T05:55:36;11.40;99.90
9209;DHT22;4639;48.862;9.188;2022-10-31T05:58:01;11.40;99.90
9209;DHT22;4639;48.862;9.188;2022-10-31T06:00:28;11.40;99.90
9209;DHT22;4639;48.862;9.188;2022-10-31T06:03:01;11.50;99.90
9209;DHT22;4639;48.862;9.188;2022-10-31T06:05:28;11.70;99.90
9209;DHT22;4639;48.862;9.188;2022-10-31T06:07:53;11.50;99.90
9209;DHT22;4639;48.862;9.188;2022-10-31T06:10:19;11.50;99.90
9209;DHT22;4639;48.862;9.188;2022-10-31T06:12:46;11.50;99.90
9209;DHT22;4639;48.862;9.188;2022-10-31T06:15:12;11.50;99.90
9209;DHT22;4639;48.862;9.188;2022-10-31T06:17:38;11.50;99.90
9209;DHT22;4639;48.862;9.188;2022-10-31T06:20:04;11.50;99.90
9209;DHT22;4639;48.862;9.188;2022-10-31T06:22:30;11.50;99.90
9209;DHT22;4639;48.862;9.188;2022-10-31T06:24:55;11.60;99.90
9209;DHT22;4639;48.862;9.188;2022-10-31T06:27:21;11.50;99.90
9209;DHT22;4639;48.862;9.188;2022-10-31T06:29:47;11.50;99.90
9209;DHT22;4639;48.862;9.188;2022-10-31T06:32:13;11.50;99.90
9209;DHT22;4639;48.862;9.188;2022-10-31T06:34:39;11.60;99.90
9209;DHT22;4639;48.862;9.188;2022-10-31T06:37:06;11.60;99.90
9209;DHT22;4639;48.862;9.188;2022-10-31T06:39:32;11.60;99.90
9209;DHT22;4639;48.862;9.188;2022-10-31T06:41:58;11.60;99.90
9209;DHT22;4639;48.862;9.188;2022-10-31T06:44:23;11.60;99.90
9209;DHT22;4639;48.862;9.188;2022-10-31T06:46:49;11.70;99.90
9209;DHT22;4639;48.862;9.188;2022-10-31T06:49:15;11.70;99.90
9209;DHT22;4639;48.862;9.188;2022-10-31T06:51:40;11.80;99.90
9209;DHT22;4639;48.862;9.188;2022-10-31T06:54:06;11.90;99.90
9209;DHT22;4639;48.862;9.188;2022-10-31T06:56:31;11.90;99.90
9209;DHT22;4639;48.862;9.188;2022-10-31T06:58:57;12.00;99.90
9209;DHT22;4639;48.862;9.188;2022-10-31T07:01:23;12.10;99.90
9209;DHT22;4639;48.862;9.188;2022-10-31T07:03:48;12.10;99.90
9209;DHT22;4639;48.862;9.188;2022-10-31T07:06:14;12.10;99.90
9209;DHT22;4639;48.862;9.188;2022-10-31T07:08:39;12.20;99.90
9209;DHT22;4639;48.862;9.188;2022-10-31T07:11:05;12.30;99.90
9209;DHT22;4639;48.862;9.188;2022-10-31T07:13:30;12.30;99.90
9209;DHT22;4639;48.862;9.188;2022-10-31T07:16:00;12.30;99.90
9209;DHT22;4639;48.862;9.188;2022-10-31T07:18:26;12.40;99.90
9209;DHT22;4639;48.862;9.188;2022-10-31T07:20:53;12.40;99.90
9209;DHT22;4639;48.862;9.188;2022-10-31T07:23:19;12.40;99.90
9209;DHT22;4639;48.862;9.188;2022-10-31T07:25:44;12.40;99.90
9209;DHT22;4639;48.862;9.188;2022-10-31T07:28:10;12.50;99.90
9209;DHT22;4639;48.862;9.188;2022-10-31T07:30:37;12.60;99.90
9209;DHT22;4639;48.862;9.188;2022-10-31T07:33:03;12.70;99.90
9209;DHT22;4639;48.862;9.188;2022-10-31T07:35:30;12.70;99.90
9209;DHT22;4639;48.862;9.188;2022-10-31T07:37:56;12.80;99.90
9209;DHT22;4639;48.862;9.188;2022-10-31T07:40:23;12.80;99.90
9209;DHT22;4639;48.862;9.188;2022-10-31T07:42:51;12.80;99.90
9209;DHT22;4639;48.862;9.188;2022-10-31T07:45:19;12.90;99.90
9209;DHT22;4639;48.862;9.188;2022-10-31T07:47:50;13.10;99.90
9209;DHT22;4639;48.862;9.188;2022-10-31T07:50:18;13.20;99.90
9209;DHT22;4639;48.862;9.188;2022-10-31T07:52:44;13.20;99.90
9209;DHT22;4639;48.862;9.188;2022-10-31T07:55:10;13.20;99.90
9209;DHT22;4639;48.862;9.188;2022-10-31T07:57:36;13.20;99.90
9209;DHT22;4639;48.862;9.188;2022-10-31T08:00:07;13.30;99.90
9209;DHT22;4639;48.862;9.188;2022-10-31T08:02:33;13.40;99.90
9209;DHT22;4639;48.862;9.188;2022-10-31T08:04:59;13.50;99.90
9209;DHT22;4639;48.862;9.188;2022-10-31T08:07:25;13.50;99.90
9209;DHT22;4639;48.862;9.188;2022-10-31T08:09:51;13.60;99.90
9209;DHT22;4639;48.862;9.188;2022-10-31T08:12:17;13.80;99.90
9209;DHT22;4639;48.862;9.188;2022-10-31T08:14:43;14.00;99.90
9209;DHT22;4639;48.862;9.188;2022-10-31T08:17:09;14.10;99.90
9209;DHT22;4639;48.862;9.188;2022-10-31T08:19:35;14.10;99.90
9209;DHT22;4639;48.862;9.188;2022-10-31T08:22:00;14.20;99.90
9209;DHT22;4639;48.862;9.188;2022-10-31T08:24:26;14.10;99.90
9209;DHT22;4639;48.862;9.188;2022-10-31T08:26:52;14.00;99.90
9209;DHT22;4639;48.862;9.188;2022-10-31T08:29:17;14.10;99.90
9209;DHT22;4639;48.862;9.188;2022-10-31T08:31:43;14.20;99.90
9209;DHT22;4639;48.862;9.188;2022-10-31T08:34:08;14.20;99.90
9209;DHT22;4639;48.862;9.188;2022-10-31T08:36:34;14.20;99.90
9209;DHT22;4639;48.862;9.188;2022-10-31T08:39:00;14.20;99.90
9209;DHT22;4639;48.862;9.188;2022-10-31T08:41:26;14.30;99.90
9209;DHT22;4639;48.862;9.188;2022-10-31T08:43:51;14.30;99.90
9209;DHT22;4639;48.862;9.188;2022-10-31T08:46:17;14.20;99.90
9209;DHT22;4639;48.862;9.188;2022-10-31T08:48:43;14.20;99.90
9209;DHT22;4639;48.862;9.188;2022-10-31T08:51:09;14.10;99.90
9209;DHT22;4639;48.862;9.188;2022-10-31T08:53:35;14.00;99.90
9209;DHT22;4639;48.862;9.188;2022-10-31T08:56:01;14.10;99.90
9209;DHT22;4639;48.862;9.188;2022-10-31T08:58:27;14.20;99.90
9209;DHT22;4639;48.862;9.188;2022-10-31T09:00:53;14.30;99.90
9209;DHT22;4639;48.862;9.188;2022-10-31T09:03:24;14.20;99.90
9209;DHT22;4639;48.862;9.188;2022-10-31T09:05:50;14.20;99.90
9209;DHT22;4639;48.862;9.188;2022-10-31T09:08:19;14.10;99.90
9209;DHT22;4639;48.862;9.188;2022-10-31T09:10:45;14.20;99.90
9209;DHT22;4639;48.862;9.188;2022-10-31T09:13:19;14.20;99.90
9209;DHT22;4639;48.862;9.188;2022-10-31T09:15:47;14.30;99.90
9209;DHT22;4639;48.862;9.188;2022-10-31T09:18:14;14.30;99.90
9209;DHT22;4639;48.862;9.188;2022-10-31T09:20:41;14.50;99.90
9209;DHT22;4639;48.862;9.188;2022-10-31T09:23:26;14.60;99.90
9209;DHT22;4639;48.862;9.188;2022-10-31T09:25:52;14.70;99.90
9209;DHT22;4639;48.862;9.188;2022-10-31T09:28:23;14.80;99.90
9209;DHT22;4639;48.862;9.188;2022-10-31T09:30:50;15.00;99.90
9209;DHT22;4639;48.862;9.188;2022-10-31T09:33:17;15.00;99.90
9209;DHT22;4639;48.862;9.188;2022-10-31T09:35:43;15.00;99.90
9209;DHT22;4639;48.862;9.188;2022-10-31T09:38:18;15.10;99.90
9209;DHT22;4639;48.862;9.188;2022-10-31T09:41:04;15.20;99.90
9209;DHT22;4639;48.862;9.188;2022-10-31T09:51:44;15.90;99.90
9209;DHT22;4639;48.862;9.188;2022-10-31T09:54:18;15.80;99.90
9209;DHT22;4639;48.862;9.188;2022-10-31T09:56:45;15.80;99.90
9209;DHT22;4639;48.862;9.188;2022-10-31T09:59:17;15.70;99.90
9209;DHT22;4639;48.862;9.188;2022-10-31T10:01:56;15.60;99.90
9209;DHT22;4639;48.862;9.188;2022-10-31T10:04:51;15.60;99.90
9209;DHT22;4639;48.862;9.188;2022-10-31T10:11:02;15.50;99.90
9209;DHT22;4639;48.862;9.188;2022-10-31T10:13:49;15.70;99.90
9209;DHT22;4639;48.862;9.188;2022-10-31T10:24:42;16.40;99.90
9209;DHT22;4639;48.862;9.188;2022-10-31T10:30:30;16.90;99.90
9209;DHT22;4639;48.862;9.188;2022-10-31T10:33:02;17.00;99.90
9209;DHT22;4639;48.862;9.188;2022-10-31T10:35:35;17.10;99.90
9209;DHT22;4639;48.862;9.188;2022-10-31T10:40:54;17.40;99.90
9209;DHT22;4639;48.862;9.188;2022-10-31T10:43:34;17.30;99.90
9209;DHT22;4639;48.862;9.188;2022-10-31T10:49:28;17.30;99.90
9209;DHT22;4639;48.862;9.188;2022-10-31T10:52:22;17.30;99.90
9209;DHT22;4639;48.862;9.188;2022-10-31T10:57:55;17.20;99.90
9209;DHT22;4639;48.862;9.188;2022-10-31T11:02:49;17.20;99.90
9209;DHT22;4639;48.862;9.188;2022-10-31T11:08:07;17.10;99.90
9209;DHT22;4639;48.862;9.188;2022-10-31T11:10:34;17.10;99.90
9209;DHT22;4639;48.862;9.188;2022-10-31T11:18:24;17.20;99.90
9209;DHT22;4639;48.862;9.188;2022-10-31T11:20:55;17.30;99.90
9209;DHT22;4639;48.862;9.188;2022-10-31T11:23:23;17.40;99.90
9209;DHT22;4639;48.862;9.188;2022-10-31T11:26:01;17.40;99.90
9209;DHT22;4639;48.862;9.188;2022-10-31T11:28:30;17.30;99.90
9209;DHT22;4639;48.862;9.188;2022-10-31T11:30:59;17.30;99.90
9209;DHT22;4639;48.862;9.188;2022-10-31T11:33:36;17.30;99.90
9209;DHT22;4639;48.862;9.188;2022-10-31T11:36:18;17.30;99.90
9209;DHT22;4639;48.862;9.188;2022-10-31T11:38:45;17.50;99.90
9209;DHT22;4639;48.862;9.188;2022-10-31T11:41:14;17.60;99.90
9209;DHT22;4639;48.862;9.188;2022-10-31T11:43:48;17.70;99.90
9209;DHT22;4639;48.862;9.188;2022-10-31T11:46:19;17.80;99.90
9209;DHT22;4639;48.862;9.188;2022-10-31T11:48:48;17.70;99.90
9209;DHT22;4639;48.862;9.188;2022-10-31T11:51:25;17.70;99.90
9209;DHT22;4639;48.862;9.188;2022-10-31T11:53:54;17.90;99.90
9209;DHT22;4639;48.862;9.188;2022-10-31T11:56:20;18.10;99.90
9209;DHT22;4639;48.862;9.188;2022-10-31T11:59:02;18.20;99.90
9209;DHT22;4639;48.862;9.188;2022-10-31T12:01:30;18.40;99.90
9209;DHT22;4639;48.862;9.188;2022-10-31T12:04:06;18.50;99.90
9209;DHT22;4639;48.862;9.188;2022-10-31T12:06:38;18.40;99.90
9209;DHT22;4639;48.862;9.188;2022-10-31T12:09:19;18.30;99.90
9209;DHT22;4639;48.862;9.188;2022-10-31T12:17:34;18.40;99.90
9209;DHT22;4639;48.862;9.188;2022-10-31T12:20:21;18.40;99.90
9209;DHT22;4639;48.862;9.188;2022-10-31T12:25:58;18.30;99.90
9209;DHT22;4639;48.862;9.188;2022-10-31T12:31:39;18.40;99.90
9209;DHT22;4639;48.862;9.188;2022-10-31T12:37:38;19.00;99.90
9209;DHT22;4639;48.862;9.188;2022-10-31T12:45:57;19.30;99.90
9209;DHT22;4639;48.862;9.188;2022-10-31T12:54:25;19.30;99.90
9209;DHT22;4639;48.862;9.188;2022-10-31T12:59:56;19.10;99.90
9209;DHT22;4639;48.862;9.188;2022-10-31T13:05:18;19.00;99.90
9209;DHT22;4639;48.862;9.188;2022-10-31T13:07:55;18.90;99.90
9209;DHT22;4639;48.862;9.188;2022-10-31T13:10:32;18.90;99.90
9209;DHT22;4639;48.862;9.188;2022-10-31T13:13:18;18.80;99.90
9209;DHT22;4639;48.862;9.188;2022-10-31T13:15:51;18.60;99.90
9209;DHT22;4639;48.862;9.188;2022-10-31T13:21:19;18.60;99.90
9209;DHT22;4639;48.862;9.188;2022-10-31T13:23:49;18.50;99.90
9209;DHT22;4639;48.862;9.188;2022-10-31T13:26:21;18.50;99.90
9209;DHT22;4639;48.862;9.188;2022-10-31T13:28:54;18.50;99.90
9209;DHT22;4639;48.862;9.188;2022-10-31T13:31:22;18.60;99.90
9209;DHT22;4639;48.862;9.188;2022-10-31T13:33:58;18.70;99.90
9209;DHT22;4639;48.862;9.188;2022-10-31T13:41:48;18.70;99.90
9209;DHT22;4639;48.862;9.188;2022-10-31T13:44:27;18.70;99.90
9209;DHT22;4639;48.862;9.188;2022-10-31T13:46:55;18.80;99.90
9209;DHT22;4639;48.862;9.188;2022-10-31T13:54:38;19.60;99.90
9209;DHT22;4639;48.862;9.188;2022-10-31T13:57:32;19.80;99.90
9209;DHT22;4639;48.862;9.188;2022-10-31T14:00:06;20.00;99.90
9209;DHT22;4639;48.862;9.188;2022-10-31T14:02:35;20.10;99.90
9209;DHT22;4639;48.862;9.188;2022-10-31T14:05:05;20.20;99.90
9209;DHT22;4639;48.862;9.188;2022-10-31T14:07:32;20.20;99.90
9209;DHT22;4639;48.862;9.188;2022-10-31T14:10:07;20.20;99.90
9209;DHT22;4639;48.862;9.188;2022-10-31T14:12:46;20.10;99.90
9209;DHT22;4639;48.862;9.188;2022-10-31T14:15:24;20.10;99.90
9209;DHT22;4639;48.862;9.188;2022-10-31T14:22:58;19.90;99.90
9209;DHT22;4639;48.862;9.188;2022-10-31T14:25:32;19.90;99.90
9209;DHT22;4639;48.862;9.188;2022-10-31T14:28:00;19.90;99.90
9209;DHT22;4639;48.862;9.188;2022-10-31T14:30:28;19.90;99.90
9209;DHT22;4639;48.862;9.188;2022-10-31T14:33:00;19.90;99.90
9209;DHT22;4639;48.862;9.188;2022-10-31T14:35:48;19.90;99.90
9209;DHT22;4639;48.862;9.188;2022-10-31T14:47:04;19.80;99.90
9209;DHT22;4639;48.862;9.188;2022-10-31T14:49:50;19.80;99.90
9209;DHT22;4639;48.862;9.188;2022-10-31T14:52:20;19.70;99.90
9209;DHT22;4639;48.862;9.188;2022-10-31T14:54:54;19.70;99.90
9209;DHT22;4639;48.862;9.188;2022-10-31T14:59:55;19.70;99.90
9209;DHT22;4639;48.862;9.188;2022-10-31T15:02:34;19.80;99.90
9209;DHT22;4639;48.862;9.188;2022-10-31T15:05:10;19.80;99.90
9209;DHT22;4639;48.862;9.188;2022-10-31T15:07:36;19.70;99.90
9209;DHT22;4639;48.862;9.188;2022-10-31T15:10:18;19.60;99.90
9209;DHT22;4639;48.862;9.188;2022-10-31T15:12:44;19.60;99.90
9209;DHT22;4639;48.862;9.188;2022-10-31T15:15:28;19.80;99.90
9209;DHT22;4639;48.862;9.188;2022-10-31T15:18:00;19.50;99.90
9209;DHT22;4639;48.862;9.188;2022-10-31T15:20:30;19.50;99.90
9209;DHT22;4639;48.862;9.188;2022-10-31T15:22:59;19.50;99.90
9209;DHT22;4639;48.862;9.188;2022-10-31T15:25:27;19.50;99.90
9209;DHT22;4639;48.862;9.188;2022-10-31T15:27:53;19.30;99.90
9209;DHT22;4639;48.862;9.188;2022-10-31T15:30:24;19.10;99.90
9209;DHT22;4639;48.862;9.188;2022-10-31T15:32:50;18.90;99.90
9209;DHT22;4639;48.862;9.188;2022-10-31T15:35:27;18.80;99.90
9209;DHT22;4639;48.862;9.188;2022-10-31T15:37:53;18.70;99.90
9209;DHT22;4639;48.862;9.188;2022-10-31T15:40:21;18.80;99.90
9209;DHT22;4639;48.862;9.188;2022-10-31T15:43:00;18.70;99.90
9209;DHT22;4639;48.862;9.188;2022-10-31T15:45:28;18.60;99.90
9209;DHT22;4639;48.862;9.188;2022-10-31T15:48:12;18.50;99.90
9209;DHT22;4639;48.862;9.188;2022-10-31T15:50:40;18.40;99.90
9209;DHT22;4639;48.862;9.188;2022-10-31T15:53:25;18.30;99.90
9209;DHT22;4639;48.862;9.188;2022-10-31T15:56:04;18.20;99.90
9209;DHT22;4639;48.862;9.188;2022-10-31T15:58:39;18.00;99.90
9209;DHT22;4639;48.862;9.188;2022-10-31T16:01:21;17.90;99.90
9209;DHT22;4639;48.862;9.188;2022-10-31T16:03:58;17.80;99.90
9209;DHT22;4639;48.862;9.188;2022-10-31T16:06:24;17.80;99.90
9209;DHT22;4639;48.862;9.188;2022-10-31T16:08:50;17.70;99.90
9209;DHT22;4639;48.862;9.188;2022-10-31T16:11:28;17.60;99.90
9209;DHT22;4639;48.862;9.188;2022-10-31T16:16:42;17.50;99.90
9209;DHT22;4639;48.862;9.188;2022-10-31T16:19:29;17.50;99.90
9209;DHT22;4639;48.862;9.188;2022-10-31T16:22:08;17.40;99.90
9209;DHT22;4639;48.862;9.188;2022-10-31T16:24:49;17.30;99.90
9209;DHT22;4639;48.862;9.188;2022-10-31T16:27:27;17.30;99.90
9209;DHT22;4639;48.862;9.188;2022-10-31T16:29:57;17.30;99.90
9209;DHT22;4639;48.862;9.188;2022-10-31T16:35:21;17.20;99.90
9209;DHT22;4639;48.862;9.188;2022-10-31T16:37:48;17.10;99.90
9209;DHT22;4639;48.862;9.188;2022-10-31T16:40:14;17.00;99.90
9209;DHT22;4639;48.862;9.188;2022-10-31T16:42:44;16.90;99.90
9209;DHT22;4639;48.862;9.188;2022-10-31T16:45:22;16.90;99.90
9209;DHT22;4639;48.862;9.188;2022-10-31T16:47:48;16.80;99.90
9209;DHT22;4639;48.862;9.188;2022-10-31T16:50:25;16.80;99.90
9209;DHT22;4639;48.862;9.188;2022-10-31T16:52:51;16.70;99.90
9209;DHT22;4639;48.862;9.188;2022-10-31T16:55:18;16.70;99.90
9209;DHT22;4639;48.862;9.188;2022-10-31T16:57:56;16.70;99.90
9209;DHT22;4639;48.862;9.188;2022-10-31T17:00:24;16.60;99.90
9209;DHT22;4639;48.862;9.188;2022-10-31T17:02:52;16.70;99.90
9209;DHT22;4639;48.862;9.188;2022-10-31T17:05:19;16.60;99.90
9209;DHT22;4639;48.862;9.188;2022-10-31T17:07:46;16.60;99.90
9209;DHT22;4639;48.862;9.188;2022-10-31T17:10:13;16.50;99.90
9209;DHT22;4639;48.862;9.188;2022-10-31T17:12:43;16.40;99.90
9209;DHT22;4639;48.862;9.188;2022-10-31T17:15:23;16.30;99.90
9209;DHT22;4639;48.862;9.188;2022-10-31T17:17:49;16.20;99.90
9209;DHT22;4639;48.862;9.188;2022-10-31T17:20:24;16.20;99.90
9209;DHT22;4639;48.862;9.188;2022-10-31T17:22:49;16.10;99.90
9209;DHT22;4639;48.862;9.188;2022-10-31T17:25:20;16.10;99.90
9209;DHT22;4639;48.862;9.188;2022-10-31T17:27:48;16.10;99.90
9209;DHT22;4639;48.862;9.188;2022-10-31T17:30:14;16.10;99.90
9209;DHT22;4639;48.862;9.188;2022-10-31T17:32:41;16.10;99.90
9209;DHT22;4639;48.862;9.188;2022-10-31T17:35:08;16.00;99.90
9209;DHT22;4639;48.862;9.188;2022-10-31T17:37:34;15.90;99.90
9209;DHT22;4639;48.862;9.188;2022-10-31T17:40:00;15.90;99.90
9209;DHT22;4639;48.862;9.188;2022-10-31T17:42:25;15.90;99.90
9209;DHT22;4639;48.862;9.188;2022-10-31T17:44:51;15.80;99.90
9209;DHT22;4639;48.862;9.188;2022-10-31T17:47:16;15.80;99.90
9209;DHT22;4639;48.862;9.188;2022-10-31T17:49:42;15.90;99.90
9209;DHT22;4639;48.862;9.188;2022-10-31T17:52:08;15.90;99.90
9209;DHT22;4639;48.862;9.188;2022-10-31T17:54:33;15.80;99.90
9209;DHT22;4639;48.862;9.188;2022-10-31T17:56:59;15.70;99.90
9209;DHT22;4639;48.862;9.188;2022-10-31T17:59:25;15.60;99.90
9209;DHT22;4639;48.862;9.188;2022-10-31T18:01:54;15.50;99.90
9209;DHT22;4639;48.862;9.188;2022-10-31T18:04:20;15.60;99.90
9209;DHT22;4639;48.862;9.188;2022-10-31T18:06:46;15.50;99.90
9209;DHT22;4639;48.862;9.188;2022-10-31T18:09:14;15.30;99.90
9209;DHT22;4639;48.862;9.188;2022-10-31T18:11:40;15.30;99.90
9209;DHT22;4639;48.862;9.188;2022-10-31T18:14:05;15.30;99.90
9209;DHT22;4639;48.862;9.188;2022-10-31T18:16:31;15.30;99.90
9209;DHT22;4639;48.862;9.188;2022-10-31T18:18:57;15.20;99.90
9209;DHT22;4639;48.862;9.188;2022-10-31T18:21:27;15.10;99.90
9209;DHT22;4639;48.862;9.188;2022-10-31T18:23:54;15.20;99.90
9209;DHT22;4639;48.862;9.188;2022-10-31T18:26:21;15.20;99.90
9209;DHT22;4639;48.862;9.188;2022-10-31T18:28:46;15.20;99.90
9209;DHT22;4639;48.862;9.188;2022-10-31T18:31:12;15.20;99.90